createdAt,value
2023-01-25T00:00:54.576Z,21.95
2023-01-25T00:03:22.482Z,23.98
2023-01-25T00:05:50.520Z,24.08
2023-01-25T00:08:21.162Z,21.67
2023-01-25T00:10:52.276Z,23.92
2023-01-25T00:13:20.218Z,22.42
2023-01-25T00:15:48.073Z,20.45
2023-01-25T00:18:15.966Z,22.52
2023-01-25T00:20:43.844Z,26.65
2023-01-25T00:23:11.816Z,23.30
2023-01-25T00:25:41.038Z,23.75
2023-01-25T00:28:08.963Z,20.48
2023-01-25T00:30:36.978Z,23.73
2023-01-25T00:33:28.364Z,23.55
2023-01-25T00:35:58.283Z,23.25
2023-01-25T00:38:31.005Z,25.98
2023-01-25T00:41:00.376Z,22.33
2023-01-25T00:43:29.367Z,23.00
2023-01-25T00:46:01.729Z,24.15
2023-01-25T00:48:30.903Z,23.58
2023-01-25T00:51:01.721Z,23.15
2023-01-25T00:53:29.901Z,26.33
2023-01-25T00:55:58.092Z,24.77
2023-01-25T00:58:27.904Z,27.73
2023-01-25T01:00:57.076Z,30.85
2023-01-25T01:03:25.401Z,27.98
2023-01-25T01:06:01.499Z,23.25
2023-01-25T01:08:29.570Z,29.05
2023-01-25T01:11:01.767Z,25.65
2023-01-25T01:13:31.636Z,25.60
2023-01-25T01:16:03.195Z,29.95
2023-01-25T01:18:34.557Z,24.90
2023-01-25T01:21:03.296Z,23.35
2023-01-25T01:23:32.181Z,26.23
2023-01-25T01:26:01.187Z,23.40
2023-01-25T01:28:31.216Z,25.63
2023-01-25T01:31:01.401Z,28.40
2023-01-25T01:33:35.178Z,24.75
2023-01-25T01:36:08.292Z,25.15
2023-01-25T01:38:36.236Z,26.73
2023-01-25T01:41:04.469Z,24.55
2023-01-25T01:43:35.310Z,25.10
2023-01-25T01:46:05.041Z,26.20
2023-01-25T01:48:41.761Z,25.35
2023-01-25T01:51:19.475Z,24.33
2023-01-25T01:53:52.175Z,27.92
2023-01-25T01:56:24.993Z,29.73
2023-01-25T01:58:57.755Z,24.60
2023-01-25T02:01:26.082Z,26.48
2023-01-25T02:03:55.080Z,28.88
2023-01-25T02:06:32.740Z,28.33
2023-01-25T02:09:02.741Z,26.65
2023-01-25T02:11:33.679Z,35.25
2023-01-25T02:14:04.350Z,29.88
2023-01-25T02:16:32.592Z,28.08
2023-01-25T02:19:02.664Z,29.48
2023-01-25T02:21:38.058Z,34.03
2023-01-25T02:24:13.551Z,32.78
2023-01-25T02:26:42.940Z,30.92
2023-01-25T02:29:11.760Z,29.90
2023-01-25T02:31:39.812Z,27.08
2023-01-25T02:34:07.934Z,33.00
2023-01-25T02:36:36.521Z,32.30
2023-01-25T02:39:09.989Z,30.77
2023-01-25T02:41:40.388Z,28.33
2023-01-25T02:44:14.045Z,27.60
2023-01-25T02:46:45.027Z,28.40
2023-01-25T02:49:13.913Z,28.33
2023-01-25T02:51:47.542Z,32.47
2023-01-25T02:56:43.724Z,32.22
2023-01-25T02:59:14.280Z,27.80
2023-01-25T03:01:47.079Z,35.88
2023-01-25T03:04:15.788Z,33.33
2023-01-25T03:06:43.947Z,26.10
2023-01-25T03:09:13.268Z,26.58
2023-01-25T03:14:15.187Z,29.33
2023-01-25T03:16:43.105Z,26.85
2023-01-25T03:19:11.643Z,25.77
2023-01-25T03:21:41.760Z,28.45
2023-01-25T03:24:11.577Z,31.67
2023-01-25T03:27:02.458Z,32.80
2023-01-25T03:29:47.244Z,32.15
2023-01-25T03:32:20.518Z,33.20
2023-01-25T03:34:49.839Z,30.05
2023-01-25T03:37:19.586Z,32.30
2023-01-25T03:39:49.083Z,25.10
2023-01-25T03:42:17.833Z,31.98
2023-01-25T03:44:47.275Z,27.77
2023-01-25T03:47:16.238Z,29.35
2023-01-25T03:49:44.349Z,29.23
2023-01-25T03:52:12.711Z,24.85
2023-01-25T03:54:42.695Z,31.42
2023-01-25T03:57:12.940Z,27.95
2023-01-25T03:59:53.287Z,33.72
2023-01-25T04:02:21.741Z,27.48
2023-01-25T04:04:49.692Z,27.55
2023-01-25T04:07:21.002Z,32.50
2023-01-25T04:09:50.237Z,30.98
2023-01-25T04:12:19.043Z,28.73
2023-01-25T04:14:47.528Z,29.77
2023-01-25T04:17:22.705Z,30.55
2023-01-25T04:20:02.676Z,30.23
2023-01-25T04:22:37.098Z,28.80
2023-01-25T04:25:08.235Z,20.88
2023-01-25T04:27:39.514Z,21.27
2023-01-25T04:30:12.838Z,19.05
2023-01-25T04:32:43.331Z,19.02
2023-01-25T04:35:21.552Z,18.40
2023-01-25T04:37:54.985Z,16.80
2023-01-25T04:40:25.361Z,18.55
2023-01-25T04:42:53.455Z,16.63
2023-01-25T04:45:21.288Z,22.38
2023-01-25T04:47:51.310Z,17.45
2023-01-25T04:50:19.201Z,23.60
2023-01-25T04:52:47.757Z,21.20
2023-01-25T04:55:15.883Z,24.45
2023-01-25T04:57:45.742Z,21.83
2023-01-25T05:00:14.365Z,22.73
2023-01-25T05:02:43.150Z,22.30
2023-01-25T05:05:12.927Z,19.67
2023-01-25T05:07:41.066Z,17.83
2023-01-25T05:10:11.224Z,17.55
2023-01-25T05:12:45.858Z,16.25
2023-01-25T05:15:14.233Z,16.73
2023-01-25T05:17:42.205Z,17.08
2023-01-25T05:20:13.740Z,23.90
2023-01-25T05:22:41.831Z,15.90
2023-01-25T05:25:30.473Z,16.25
2023-01-25T05:27:57.811Z,18.15
2023-01-25T05:30:54.762Z,20.23
2023-01-25T05:33:26.597Z,20.77
2023-01-25T05:35:56.283Z,20.13
2023-01-25T05:38:25.013Z,21.67
2023-01-25T05:40:52.837Z,20.30
2023-01-25T05:43:20.743Z,12.38
2023-01-25T05:45:54.040Z,20.63
2023-01-25T05:48:22.053Z,26.88
2023-01-25T05:50:50.041Z,18.65
2023-01-25T05:53:27.089Z,18.38
2023-01-25T05:55:55.170Z,20.88
2023-01-25T05:58:23.723Z,18.33
2023-01-25T06:00:51.587Z,15.38
2023-01-25T06:03:38.506Z,19.85
2023-01-25T06:06:07.022Z,17.98
2023-01-25T06:08:37.483Z,18.20
2023-01-25T06:11:08.775Z,18.23
2023-01-25T06:13:38.228Z,16.30
2023-01-25T06:16:06.970Z,16.08
2023-01-25T06:18:44.683Z,16.92
2023-01-25T06:21:24.745Z,16.65
2023-01-25T06:23:54.105Z,20.35
2023-01-25T06:26:22.007Z,20.13
2023-01-25T06:28:50.688Z,16.48
2023-01-25T06:31:20.069Z,19.40
2023-01-25T06:33:50.140Z,20.75
2023-01-25T06:36:21.324Z,22.55
2023-01-25T06:38:50.438Z,20.30
2023-01-25T06:41:20.542Z,25.77
2023-01-25T06:43:50.892Z,21.80
2023-01-25T06:46:19.638Z,25.42
2023-01-25T06:48:47.508Z,21.00
2023-01-25T06:51:16.675Z,23.73
2023-01-25T06:53:46.624Z,24.80
2023-01-25T06:56:17.597Z,24.75
2023-01-25T06:58:47.554Z,22.52
2023-01-25T07:01:19.800Z,25.33
2023-01-25T07:03:49.542Z,31.37
2023-01-25T07:06:17.486Z,25.92
2023-01-25T07:08:45.630Z,28.33
2023-01-25T07:11:14.488Z,21.83
2023-01-25T07:13:43.747Z,23.27
2023-01-25T07:16:15.547Z,21.95
2023-01-25T07:18:43.476Z,20.60
2023-01-25T07:21:13.641Z,26.75
2023-01-25T07:23:41.923Z,20.38
2023-01-25T07:26:16.583Z,24.73
2023-01-25T07:28:44.769Z,26.90
2023-01-25T07:31:14.535Z,22.73
2023-01-25T07:33:42.797Z,26.13
2023-01-25T07:36:12.173Z,23.13
2023-01-25T07:38:40.728Z,31.20
2023-01-25T07:41:08.737Z,28.10
2023-01-25T07:43:36.632Z,26.30
2023-01-25T07:46:07.062Z,27.52
2023-01-25T07:48:36.321Z,27.30
2023-01-25T07:51:22.491Z,25.95
2023-01-25T07:53:52.266Z,28.20
2023-01-25T07:56:20.795Z,24.27
2023-01-25T07:58:48.903Z,31.35
2023-01-25T08:01:19.551Z,29.95
2023-01-25T08:03:49.628Z,26.55
2023-01-25T08:06:17.639Z,29.77
2023-01-25T08:08:48.202Z,23.52
2023-01-25T08:11:18.698Z,26.00
2023-01-25T08:13:46.981Z,28.20
2023-01-25T08:16:15.320Z,23.98
2023-01-25T08:18:43.236Z,28.27
2023-01-25T08:21:12.486Z,23.27
2023-01-25T08:23:40.376Z,27.58
2023-01-25T08:26:10.578Z,27.00
2023-01-25T08:28:38.605Z,29.65
2023-01-25T08:31:08.130Z,28.05
2023-01-25T08:33:36.695Z,22.27
2023-01-25T08:36:05.417Z,23.90
2023-01-25T08:38:34.831Z,21.40
2023-01-25T08:41:07.004Z,26.83
2023-01-25T08:43:35.356Z,28.48
2023-01-25T08:46:03.565Z,28.15
2023-01-25T08:48:31.804Z,25.08
2023-01-25T08:51:00.070Z,25.17
2023-01-25T08:53:28.649Z,30.98
2023-01-25T08:55:57.915Z,26.15
2023-01-25T08:58:25.826Z,27.35
2023-01-25T09:00:53.676Z,23.48
2023-01-25T09:03:22.278Z,24.45
2023-01-25T09:05:50.183Z,31.00
2023-01-25T09:08:18.037Z,28.58
2023-01-25T09:10:45.923Z,31.27
2023-01-25T09:13:15.474Z,29.65
2023-01-25T09:15:43.460Z,24.60
2023-01-25T09:18:11.830Z,27.17
2023-01-25T09:20:40.587Z,31.33
2023-01-25T09:23:08.658Z,29.02
2023-01-25T09:25:36.814Z,35.55
2023-01-25T09:28:11.403Z,30.33
2023-01-25T09:30:48.469Z,26.52
2023-01-25T09:33:28.359Z,28.75
2023-01-25T09:35:56.709Z,29.38
2023-01-25T09:38:25.538Z,27.92
2023-01-25T09:41:07.314Z,25.20
2023-01-25T09:43:56.792Z,26.80
2023-01-25T09:46:31.685Z,24.40
2023-01-25T09:49:10.397Z,31.27
2023-01-25T09:51:54.840Z,22.65
2023-01-25T09:54:24.286Z,28.42
2023-01-25T09:56:53.300Z,30.67
2023-01-25T09:59:30.550Z,33.47
2023-01-25T10:02:15.960Z,31.27
2023-01-25T10:04:46.958Z,27.58
2023-01-25T10:07:21.246Z,25.45
2023-01-25T10:09:56.213Z,25.48
2023-01-25T10:12:26.252Z,30.23
2023-01-25T10:14:54.263Z,23.05
2023-01-25T10:17:36.573Z,23.85
2023-01-25T10:20:16.281Z,24.60
2023-01-25T10:22:50.080Z,25.05
2023-01-25T10:25:26.103Z,23.98
2023-01-25T10:28:30.172Z,27.67
2023-01-25T10:31:02.234Z,27.98
2023-01-25T10:33:36.318Z,30.38
2023-01-25T10:36:06.480Z,39.15
2023-01-25T10:38:39.074Z,37.72
2023-01-25T10:41:11.998Z,32.80
2023-01-25T10:43:39.971Z,36.40
2023-01-25T10:46:20.369Z,33.13
2023-01-25T10:48:49.804Z,33.90
2023-01-25T10:51:32.294Z,33.95
2023-01-25T10:54:03.636Z,34.50
2023-01-25T10:56:33.980Z,33.53
2023-01-25T10:59:17.461Z,34.67
2023-01-25T11:04:36.019Z,32.22
2023-01-25T11:07:06.140Z,34.33
2023-01-25T11:09:36.973Z,32.60
2023-01-25T11:12:16.603Z,38.15
2023-01-25T11:14:44.670Z,33.58
2023-01-25T11:17:25.231Z,33.33
2023-01-25T11:20:16.075Z,35.03
2023-01-25T11:22:52.040Z,31.70
2023-01-25T11:25:31.608Z,34.08
2023-01-25T11:28:12.576Z,37.80
2023-01-25T11:30:40.524Z,37.00
2023-01-25T11:33:12.766Z,36.22
2023-01-25T11:36:08.482Z,40.33
2023-01-25T11:38:36.893Z,45.97
2023-01-25T11:41:12.315Z,40.42
2023-01-25T11:44:00.517Z,38.58
2023-01-25T11:46:47.211Z,38.35
2023-01-25T11:49:46.266Z,38.72
2023-01-25T11:52:32.651Z,33.65
2023-01-25T11:55:14.025Z,37.83
2023-01-25T11:58:11.512Z,38.60
2023-01-25T12:01:04.553Z,35.30
2023-01-25T12:04:01.967Z,35.27
2023-01-25T12:06:41.012Z,38.25
2023-01-25T12:09:26.583Z,42.03
2023-01-25T12:12:07.062Z,43.13
2023-01-25T12:14:46.750Z,43.80
2023-01-25T12:17:33.084Z,47.95
2023-01-25T12:20:22.471Z,44.55
2023-01-25T12:23:10.067Z,39.38
2023-01-25T12:25:51.888Z,43.85
2023-01-25T12:28:23.936Z,46.17
2023-01-25T12:30:56.545Z,43.15
2023-01-25T12:33:29.227Z,38.85
2023-01-25T12:36:04.106Z,44.85
2023-01-25T12:38:39.200Z,43.03
2023-01-25T12:41:20.102Z,40.00
2023-01-25T12:43:53.338Z,39.25
2023-01-25T12:48:56.020Z,38.05
2023-01-25T12:51:27.412Z,43.08
2023-01-25T12:53:57.207Z,39.58
2023-01-25T12:56:40.673Z,39.40
2023-01-25T13:01:46.596Z,38.55
2023-01-25T13:04:32.814Z,45.92
2023-01-25T13:07:11.187Z,38.10
2023-01-25T13:09:46.439Z,39.13
2023-01-25T13:12:15.816Z,40.10
2023-01-25T13:14:44.049Z,33.25
2023-01-25T13:17:22.120Z,40.72
2023-01-25T13:19:50.414Z,39.63
2023-01-25T13:22:58.518Z,39.58
2023-01-25T13:25:28.393Z,38.72
2023-01-25T13:28:35.415Z,36.30
2023-01-25T13:31:04.892Z,42.20
2023-01-25T13:33:36.780Z,45.35
2023-01-25T13:36:46.656Z,43.92
2023-01-25T13:39:43.049Z,45.33
2023-01-25T13:42:21.784Z,44.90
2023-01-25T13:44:51.954Z,39.45
2023-01-25T13:47:23.767Z,39.92
2023-01-25T13:49:57.887Z,37.85
2023-01-25T13:52:27.147Z,43.17
2023-01-25T13:54:57.190Z,42.03
2023-01-25T13:57:27.933Z,38.85
2023-01-25T14:00:10.684Z,38.35
2023-01-25T14:02:41.545Z,43.03
2023-01-25T14:05:19.890Z,43.80
2023-01-25T14:07:50.028Z,38.10
2023-01-25T14:10:23.419Z,45.38
2023-01-25T14:12:52.919Z,44.97
2023-01-25T14:15:24.679Z,43.10
2023-01-25T14:18:12.318Z,43.55
2023-01-25T14:20:40.254Z,44.60
2023-01-25T14:23:22.316Z,42.85
2023-01-25T14:25:50.554Z,39.75
2023-01-25T14:28:19.208Z,41.13
2023-01-25T14:30:52.002Z,44.70
2023-01-25T14:33:25.602Z,40.22
2023-01-25T14:35:58.481Z,37.92
2023-01-25T14:38:31.946Z,33.50
2023-01-25T14:41:04.503Z,38.92
2023-01-25T14:43:33.418Z,36.10
2023-01-25T14:46:01.519Z,36.90
2023-01-25T14:48:42.417Z,37.17
2023-01-25T14:51:17.383Z,33.30
2023-01-25T14:53:49.299Z,38.33
2023-01-25T14:56:33.993Z,36.40
2023-01-25T14:59:02.397Z,40.10
2023-01-25T15:01:33.927Z,42.70
2023-01-25T15:04:03.748Z,33.50
2023-01-25T15:06:31.586Z,37.88
2023-01-25T15:08:59.562Z,40.85
2023-01-25T15:11:38.687Z,38.92
2023-01-25T15:14:17.549Z,35.05
2023-01-25T15:16:46.278Z,36.38
2023-01-25T15:19:29.964Z,40.47
2023-01-25T15:21:59.965Z,33.08
2023-01-25T15:24:28.495Z,39.67
2023-01-25T15:26:57.209Z,31.38
2023-01-25T15:29:27.541Z,31.63
2023-01-25T15:31:57.270Z,31.83
2023-01-25T15:34:29.279Z,31.92
2023-01-25T15:36:58.524Z,25.08
2023-01-25T15:39:27.782Z,26.75
2023-01-25T15:41:55.878Z,30.30
2023-01-25T15:44:23.731Z,31.10
2023-01-25T15:46:53.521Z,27.38
2023-01-25T15:49:26.243Z,29.45
2023-01-25T15:51:54.162Z,30.27
2023-01-25T15:54:24.274Z,32.92
2023-01-25T15:56:55.771Z,32.63
2023-01-25T15:59:23.855Z,29.77
2023-01-25T16:01:51.734Z,28.20
2023-01-25T16:04:19.591Z,29.38
2023-01-25T16:06:50.206Z,28.95
2023-01-25T16:09:21.387Z,34.38
2023-01-25T16:11:54.092Z,35.03
2023-01-25T16:14:23.641Z,37.65
2023-01-25T16:16:53.334Z,41.00
2023-01-25T16:19:23.012Z,31.17
2023-01-25T16:21:51.562Z,31.23
2023-01-25T16:24:19.535Z,36.53
2023-01-25T16:26:52.467Z,33.20
2023-01-25T16:29:20.507Z,28.77
2023-01-25T16:31:48.386Z,32.92
2023-01-25T16:34:16.347Z,37.88
2023-01-25T16:36:50.027Z,37.08
2023-01-25T16:39:20.547Z,32.20
2023-01-25T16:41:48.773Z,35.13
2023-01-25T16:44:18.657Z,35.80
2023-01-25T16:46:47.478Z,26.90
2023-01-25T16:49:18.149Z,32.83
2023-01-25T16:51:46.364Z,34.13
2023-01-25T16:54:14.244Z,32.60
2023-01-25T16:56:42.122Z,37.00
2023-01-25T16:59:12.056Z,33.80
2023-01-25T17:01:41.715Z,36.03
2023-01-25T17:04:10.944Z,33.45
2023-01-25T17:06:42.870Z,31.20
2023-01-25T17:09:22.911Z,28.73
2023-01-25T17:11:52.061Z,28.55
2023-01-25T17:14:20.220Z,27.27
2023-01-25T17:16:51.892Z,29.20
2023-01-25T17:19:20.988Z,31.45
2023-01-25T17:21:49.605Z,28.42
2023-01-25T17:24:22.145Z,24.27
2023-01-25T17:26:50.898Z,25.95
2023-01-25T17:29:18.967Z,21.92
2023-01-25T17:31:47.103Z,26.55
2023-01-25T17:34:19.198Z,23.40
2023-01-25T17:36:47.836Z,29.17
2023-01-25T17:39:18.151Z,28.83
2023-01-25T17:41:47.753Z,30.52
2023-01-25T17:44:20.400Z,34.25
2023-01-25T17:46:49.176Z,29.40
2023-01-25T17:49:19.034Z,32.92
2023-01-25T17:51:47.643Z,33.10
2023-01-25T17:54:15.908Z,27.90
2023-01-25T17:56:43.863Z,31.55
2023-01-25T17:59:11.911Z,31.25
2023-01-25T18:01:42.892Z,30.77
2023-01-25T18:04:13.157Z,32.35
2023-01-25T18:06:42.661Z,31.80
2023-01-25T18:09:11.023Z,32.55
2023-01-25T18:11:40.828Z,34.25
2023-01-25T18:14:12.070Z,39.25
2023-01-25T18:16:44.707Z,31.92
2023-01-25T18:19:12.999Z,33.97
2023-01-25T18:21:43.275Z,32.47
2023-01-25T18:24:25.932Z,31.75
2023-01-25T18:27:00.029Z,33.07
2023-01-25T18:29:40.621Z,34.50
2023-01-25T18:32:08.871Z,32.15
2023-01-25T18:34:36.834Z,31.10
2023-01-25T18:37:18.817Z,27.88
2023-01-25T18:39:47.303Z,34.67
2023-01-25T18:42:15.379Z,31.48
2023-01-25T18:44:48.074Z,35.50
2023-01-25T18:47:18.565Z,27.58
2023-01-25T18:49:46.855Z,27.15
2023-01-25T18:52:16.702Z,29.33
2023-01-25T18:54:47.391Z,29.33
2023-01-25T18:57:25.195Z,36.08
2023-01-25T18:59:53.814Z,35.58
2023-01-25T19:02:23.161Z,32.70
2023-01-25T19:04:51.177Z,33.55
2023-01-25T19:07:20.498Z,32.15
2023-01-25T19:09:48.414Z,36.75
2023-01-25T19:12:16.415Z,41.15
2023-01-25T19:14:44.581Z,35.50
2023-01-25T19:17:12.531Z,35.45
2023-01-25T19:19:40.475Z,38.25
2023-01-25T19:22:08.419Z,34.13
2023-01-25T19:24:37.742Z,38.88
2023-01-25T19:27:05.717Z,32.92
2023-01-25T19:29:33.739Z,38.15
2023-01-25T19:32:01.745Z,30.88
2023-01-25T19:34:29.675Z,34.92
2023-01-25T19:36:58.243Z,29.25
2023-01-25T19:39:26.199Z,34.70
2023-01-25T19:41:55.814Z,25.35
2023-01-25T19:44:24.917Z,26.98
2023-01-25T19:46:53.248Z,26.60
2023-01-25T19:49:22.368Z,28.30
2023-01-25T19:51:53.251Z,22.88
2023-01-25T19:54:21.850Z,25.90
2023-01-25T19:56:51.100Z,23.67
2023-01-25T19:59:22.020Z,23.92
2023-01-25T20:01:50.246Z,26.88
2023-01-25T20:04:20.946Z,21.67
2023-01-25T20:06:49.867Z,26.63
2023-01-25T20:09:20.229Z,24.73
2023-01-25T20:11:48.405Z,28.58
2023-01-25T20:14:16.744Z,20.65
2023-01-25T20:16:47.163Z,26.15
2023-01-25T20:19:15.163Z,27.70
2023-01-25T20:21:43.067Z,30.77
2023-01-25T20:24:11.580Z,25.85
2023-01-25T20:26:42.937Z,24.70
2023-01-25T20:29:14.658Z,27.55
2023-01-25T20:31:44.576Z,24.90
2023-01-25T20:34:16.961Z,21.88
2023-01-25T20:36:45.561Z,27.25
2023-01-25T20:39:15.130Z,24.75
2023-01-25T20:41:43.294Z,26.30
2023-01-25T20:44:14.253Z,23.88
2023-01-25T20:46:43.423Z,27.60
2023-01-25T20:49:15.510Z,28.90
2023-01-25T20:51:44.182Z,32.23
2023-01-25T20:54:14.739Z,24.85
2023-01-25T20:56:48.118Z,28.15
2023-01-25T20:59:19.132Z,25.02
2023-01-25T21:01:47.278Z,28.63
2023-01-25T21:04:16.718Z,24.42
2023-01-25T21:06:44.720Z,25.88
2023-01-25T21:09:15.685Z,29.40
2023-01-25T21:11:43.786Z,25.38
2023-01-25T21:14:11.702Z,26.27
2023-01-25T21:16:39.710Z,24.17
2023-01-25T21:19:08.159Z,22.30
2023-01-25T21:21:38.530Z,25.95
2023-01-25T21:24:07.492Z,26.58
2023-01-25T21:26:38.216Z,23.58
2023-01-25T21:29:07.960Z,24.88
2023-01-25T21:31:37.989Z,19.75
2023-01-25T21:34:09.187Z,23.10
2023-01-25T21:36:38.813Z,26.08
2023-01-25T21:39:06.865Z,25.30
2023-01-25T21:41:34.910Z,25.73
2023-01-25T21:44:21.320Z,29.58
2023-01-25T21:47:16.348Z,27.00
2023-01-25T21:49:54.806Z,25.77
2023-01-25T21:52:24.142Z,27.05
2023-01-25T21:54:52.076Z,26.05
2023-01-25T21:57:20.518Z,26.52
2023-01-25T21:59:49.198Z,25.02
2023-01-25T22:02:17.359Z,24.67
2023-01-25T22:04:45.563Z,24.85
2023-01-25T22:07:13.721Z,24.30
2023-01-25T22:09:43.174Z,26.52
2023-01-25T22:12:12.548Z,22.13
2023-01-25T22:14:40.632Z,21.33
2023-01-25T22:17:08.748Z,22.08
2023-01-25T22:19:36.767Z,24.15
2023-01-25T22:22:04.886Z,21.23
2023-01-25T22:24:33.005Z,25.33
2023-01-25T22:27:32.997Z,25.80
2023-01-25T22:30:01.041Z,19.90
2023-01-25T22:32:29.240Z,27.50
2023-01-25T22:34:57.192Z,24.52
2023-01-25T22:37:25.240Z,22.88
2023-01-25T22:39:54.502Z,23.75
2023-01-25T22:42:23.989Z,24.75
2023-01-25T22:44:52.479Z,22.33
2023-01-25T22:47:20.661Z,23.63
2023-01-25T22:49:48.728Z,26.25
2023-01-25T22:52:16.875Z,24.15
2023-01-25T22:54:45.069Z,28.40
2023-01-25T22:57:13.068Z,27.95
2023-01-25T22:59:42.539Z,28.48
2023-01-25T23:02:10.650Z,20.85
2023-01-25T23:04:38.800Z,27.08
2023-01-25T23:07:12.743Z,30.00
2023-01-25T23:09:41.455Z,25.80
2023-01-25T23:12:09.595Z,27.90
2023-01-25T23:14:51.336Z,27.52
2023-01-25T23:17:39.393Z,26.15
2023-01-25T23:20:09.586Z,28.35
2023-01-25T23:22:37.830Z,23.83
2023-01-25T23:25:07.136Z,24.92
2023-01-25T23:27:35.198Z,22.67
2023-01-25T23:30:03.290Z,23.17
2023-01-25T23:32:32.731Z,24.80
2023-01-25T23:35:00.698Z,27.50
2023-01-25T23:37:28.589Z,30.33
2023-01-25T23:39:56.427Z,23.85
2023-01-25T23:42:24.266Z,29.70
2023-01-25T23:44:52.228Z,32.90
2023-01-25T23:47:20.113Z,26.92
2023-01-25T23:49:49.355Z,28.90
2023-01-25T23:52:17.256Z,27.70
2023-01-25T23:54:45.128Z,31.17
2023-01-25T23:57:13.008Z,28.05
2023-01-25T23:59:40.887Z,31.05
